sensor_id;sensor_type;location;lat;lon;timestamp;P1;durP1;ratioP1;P2;durP2;ratioP2
80408;SDS011;69741;49.464;10.986;2023-05-10T00:02:08;7.13;;;3.92;;
80408;SDS011;69741;49.464;10.986;2023-05-10T00:04:33;7.30;;;3.97;;
80408;SDS011;69741;49.464;10.986;2023-05-10T00:06:58;9.60;;;3.90;;
80408;SDS011;69741;49.464;10.986;2023-05-10T00:09:24;8.20;;;4.00;;
80408;SDS011;69741;49.464;10.986;2023-05-10T00:11:49;8.37;;;4.13;;
80408;SDS011;69741;49.464;10.986;2023-05-10T00:14:14;7.73;;;4.50;;
80408;SDS011;69741;49.464;10.986;2023-05-10T00:16:39;7.53;;;4.18;;
80408;SDS011;69741;49.464;10.986;2023-05-10T00:19:04;9.15;;;3.95;;
80408;SDS011;69741;49.464;10.986;2023-05-10T00:21:29;8.57;;;4.30;;
80408;SDS011;69741;49.464;10.986;2023-05-10T00:23:55;10.57;;;4.63;;
80408;SDS011;69741;49.464;10.986;2023-05-10T00:26:20;9.98;;;3.58;;
80408;SDS011;69741;49.464;10.986;2023-05-10T00:28:45;8.38;;;4.18;;
80408;SDS011;69741;49.464;10.986;2023-05-10T00:31:10;8.30;;;4.37;;
80408;SDS011;69741;49.464;10.986;2023-05-10T00:33:35;10.43;;;4.47;;
80408;SDS011;69741;49.464;10.986;2023-05-10T00:36:01;8.07;;;4.30;;
80408;SDS011;69741;49.464;10.986;2023-05-10T00:38:26;8.30;;;3.90;;
80408;SDS011;69741;49.464;10.986;2023-05-10T00:40:51;8.43;;;4.15;;
80408;SDS011;69741;49.464;10.986;2023-05-10T00:43:16;9.80;;;4.67;;
80408;SDS011;69741;49.464;10.986;2023-05-10T00:45:41;8.35;;;4.72;;
80408;SDS011;69741;49.464;10.986;2023-05-10T00:48:06;8.73;;;4.50;;
80408;SDS011;69741;49.464;10.986;2023-05-10T00:50:32;8.33;;;4.57;;
80408;SDS011;69741;49.464;10.986;2023-05-10T00:52:58;8.52;;;4.45;;
80408;SDS011;69741;49.464;10.986;2023-05-10T00:55:24;8.15;;;4.47;;
80408;SDS011;69741;49.464;10.986;2023-05-10T00:57:49;11.00;;;4.00;;
80408;SDS011;69741;49.464;10.986;2023-05-10T01:00:15;8.07;;;4.15;;
80408;SDS011;69741;49.464;10.986;2023-05-10T01:02:43;9.15;;;4.38;;
80408;SDS011;69741;49.464;10.986;2023-05-10T01:05:08;8.45;;;4.40;;
80408;SDS011;69741;49.464;10.986;2023-05-10T01:07:34;10.63;;;4.32;;
80408;SDS011;69741;49.464;10.986;2023-05-10T01:09:59;8.27;;;4.57;;
80408;SDS011;69741;49.464;10.986;2023-05-10T01:12:25;8.32;;;4.80;;
80408;SDS011;69741;49.464;10.986;2023-05-10T01:14:50;9.65;;;4.70;;
80408;SDS011;69741;49.464;10.986;2023-05-10T01:17:16;8.85;;;4.57;;
80408;SDS011;69741;49.464;10.986;2023-05-10T01:19:42;8.02;;;4.10;;
80408;SDS011;69741;49.464;10.986;2023-05-10T01:22:11;9.90;;;4.33;;
80408;SDS011;69741;49.464;10.986;2023-05-10T01:24:46;7.97;;;4.05;;
80408;SDS011;69741;49.464;10.986;2023-05-10T01:32:32;8.65;;;3.90;;
80408;SDS011;69741;49.464;10.986;2023-05-10T01:35:03;8.43;;;4.45;;
80408;SDS011;69741;49.464;10.986;2023-05-10T01:37:33;9.65;;;4.30;;
80408;SDS011;69741;49.464;10.986;2023-05-10T01:40:03;7.60;;;4.60;;
80408;SDS011;69741;49.464;10.986;2023-05-10T01:42:36;7.03;;;3.92;;
80408;SDS011;69741;49.464;10.986;2023-05-10T01:45:11;8.82;;;3.95;;
80408;SDS011;69741;49.464;10.986;2023-05-10T01:47:44;9.68;;;3.85;;
80408;SDS011;69741;49.464;10.986;2023-05-10T01:50:22;7.57;;;3.67;;
80408;SDS011;69741;49.464;10.986;2023-05-10T01:52:50;7.20;;;3.17;;
80408;SDS011;69741;49.464;10.986;2023-05-10T01:55:16;8.52;;;3.55;;
80408;SDS011;69741;49.464;10.986;2023-05-10T01:57:43;8.18;;;3.47;;
80408;SDS011;69741;49.464;10.986;2023-05-10T02:00:09;7.28;;;3.65;;
80408;SDS011;69741;49.464;10.986;2023-05-10T02:02:36;7.07;;;3.13;;
80408;SDS011;69741;49.464;10.986;2023-05-10T02:05:02;6.68;;;3.03;;
80408;SDS011;69741;49.464;10.986;2023-05-10T02:07:28;5.80;;;2.80;;
80408;SDS011;69741;49.464;10.986;2023-05-10T02:09:54;6.00;;;3.13;;
80408;SDS011;69741;49.464;10.986;2023-05-10T02:12:20;6.53;;;3.30;;
80408;SDS011;69741;49.464;10.986;2023-05-10T02:14:46;6.32;;;3.08;;
80408;SDS011;69741;49.464;10.986;2023-05-10T02:17:11;6.57;;;3.45;;
80408;SDS011;69741;49.464;10.986;2023-05-10T02:19:38;7.57;;;3.10;;
80408;SDS011;69741;49.464;10.986;2023-05-10T02:22:04;5.32;;;2.90;;
80408;SDS011;69741;49.464;10.986;2023-05-10T02:24:30;7.05;;;3.28;;
80408;SDS011;69741;49.464;10.986;2023-05-10T02:26:56;7.10;;;2.75;;
80408;SDS011;69741;49.464;10.986;2023-05-10T02:29:25;5.82;;;2.75;;
80408;SDS011;69741;49.464;10.986;2023-05-10T02:31:54;5.97;;;2.85;;
80408;SDS011;69741;49.464;10.986;2023-05-10T02:34:20;5.80;;;2.80;;
80408;SDS011;69741;49.464;10.986;2023-05-10T02:36:46;5.30;;;2.63;;
80408;SDS011;69741;49.464;10.986;2023-05-10T02:39:12;6.35;;;2.17;;
80408;SDS011;69741;49.464;10.986;2023-05-10T02:41:39;5.85;;;2.88;;
80408;SDS011;69741;49.464;10.986;2023-05-10T02:44:05;6.85;;;3.05;;
80408;SDS011;69741;49.464;10.986;2023-05-10T02:46:31;5.85;;;2.63;;
80408;SDS011;69741;49.464;10.986;2023-05-10T02:48:56;5.33;;;3.10;;
80408;SDS011;69741;49.464;10.986;2023-05-10T02:51:23;6.30;;;3.03;;
80408;SDS011;69741;49.464;10.986;2023-05-10T02:53:49;4.90;;;2.08;;
80408;SDS011;69741;49.464;10.986;2023-05-10T02:56:20;4.85;;;2.03;;
80408;SDS011;69741;49.464;10.986;2023-05-10T02:58:48;5.45;;;2.42;;
80408;SDS011;69741;49.464;10.986;2023-05-10T03:01:13;4.73;;;2.13;;
80408;SDS011;69741;49.464;10.986;2023-05-10T03:03:38;4.97;;;2.58;;
80408;SDS011;69741;49.464;10.986;2023-05-10T03:06:03;4.72;;;2.05;;
80408;SDS011;69741;49.464;10.986;2023-05-10T03:08:29;6.65;;;2.90;;
80408;SDS011;69741;49.464;10.986;2023-05-10T03:13:44;4.53;;;2.35;;
80408;SDS011;69741;49.464;10.986;2023-05-10T03:16:19;3.85;;;2.15;;
80408;SDS011;69741;49.464;10.986;2023-05-10T03:18:50;4.35;;;1.77;;
80408;SDS011;69741;49.464;10.986;2023-05-10T03:21:19;2.95;;;1.08;;
80408;SDS011;69741;49.464;10.986;2023-05-10T03:23:46;4.03;;;1.73;;
80408;SDS011;69741;49.464;10.986;2023-05-10T03:26:17;3.72;;;1.40;;
80408;SDS011;69741;49.464;10.986;2023-05-10T03:28:42;3.20;;;1.20;;
80408;SDS011;69741;49.464;10.986;2023-05-10T03:31:08;3.42;;;1.38;;
80408;SDS011;69741;49.464;10.986;2023-05-10T03:33:34;2.63;;;1.00;;
80408;SDS011;69741;49.464;10.986;2023-05-10T03:35:59;2.93;;;1.10;;
80408;SDS011;69741;49.464;10.986;2023-05-10T03:38:24;2.65;;;0.90;;
80408;SDS011;69741;49.464;10.986;2023-05-10T03:40:50;3.47;;;1.10;;
80408;SDS011;69741;49.464;10.986;2023-05-10T03:43:15;3.33;;;0.98;;
80408;SDS011;69741;49.464;10.986;2023-05-10T03:45:40;1.73;;;0.50;;
80408;SDS011;69741;49.464;10.986;2023-05-10T03:48:05;2.13;;;0.60;;
80408;SDS011;69741;49.464;10.986;2023-05-10T03:50:30;2.00;;;0.70;;
80408;SDS011;69741;49.464;10.986;2023-05-10T03:52:55;2.47;;;0.90;;
80408;SDS011;69741;49.464;10.986;2023-05-10T03:55:21;2.93;;;1.00;;
80408;SDS011;69741;49.464;10.986;2023-05-10T03:57:47;1.95;;;0.60;;
80408;SDS011;69741;49.464;10.986;2023-05-10T04:00:14;1.50;;;0.40;;
80408;SDS011;69741;49.464;10.986;2023-05-10T04:02:39;1.95;;;0.50;;
80408;SDS011;69741;49.464;10.986;2023-05-10T04:05:05;1.30;;;0.30;;
80408;SDS011;69741;49.464;10.986;2023-05-10T04:07:30;1.30;;;0.33;;
80408;SDS011;69741;49.464;10.986;2023-05-10T04:09:55;1.33;;;0.43;;
80408;SDS011;69741;49.464;10.986;2023-05-10T04:12:20;1.20;;;0.43;;
80408;SDS011;69741;49.464;10.986;2023-05-10T04:14:45;2.72;;;1.13;;
80408;SDS011;69741;49.464;10.986;2023-05-10T04:17:11;1.30;;;0.43;;
80408;SDS011;69741;49.464;10.986;2023-05-10T04:19:36;1.00;;;0.40;;
80408;SDS011;69741;49.464;10.986;2023-05-10T04:22:02;1.98;;;0.35;;
80408;SDS011;69741;49.464;10.986;2023-05-10T04:24:27;0.73;;;0.30;;
80408;SDS011;69741;49.464;10.986;2023-05-10T04:26:53;1.27;;;0.33;;
80408;SDS011;69741;49.464;10.986;2023-05-10T04:29:19;2.60;;;0.35;;
80408;SDS011;69741;49.464;10.986;2023-05-10T04:31:44;1.63;;;0.50;;
80408;SDS011;69741;49.464;10.986;2023-05-10T04:34:09;1.40;;;0.60;;
80408;SDS011;69741;49.464;10.986;2023-05-10T04:36:34;1.03;;;0.23;;
80408;SDS011;69741;49.464;10.986;2023-05-10T04:39:00;1.08;;;0.30;;
80408;SDS011;69741;49.464;10.986;2023-05-10T04:41:27;1.58;;;0.43;;
80408;SDS011;69741;49.464;10.986;2023-05-10T04:43:52;1.25;;;0.40;;
80408;SDS011;69741;49.464;10.986;2023-05-10T04:46:18;1.02;;;0.50;;
80408;SDS011;69741;49.464;10.986;2023-05-10T04:48:43;0.93;;;0.40;;
80408;SDS011;69741;49.464;10.986;2023-05-10T04:51:08;1.45;;;0.60;;
80408;SDS011;69741;49.464;10.986;2023-05-10T04:53:33;1.70;;;0.50;;
80408;SDS011;69741;49.464;10.986;2023-05-10T04:55:59;1.05;;;0.32;;
80408;SDS011;69741;49.464;10.986;2023-05-10T04:58:24;1.20;;;0.50;;
80408;SDS011;69741;49.464;10.986;2023-05-10T05:00:49;1.52;;;0.40;;
80408;SDS011;69741;49.464;10.986;2023-05-10T05:03:14;0.90;;;0.40;;
80408;SDS011;69741;49.464;10.986;2023-05-10T05:05:39;1.30;;;0.47;;
80408;SDS011;69741;49.464;10.986;2023-05-10T05:08:04;1.40;;;0.47;;
80408;SDS011;69741;49.464;10.986;2023-05-10T05:10:30;1.23;;;0.50;;
80408;SDS011;69741;49.464;10.986;2023-05-10T05:12:55;0.97;;;0.30;;
80408;SDS011;69741;49.464;10.986;2023-05-10T05:15:20;0.87;;;0.30;;
80408;SDS011;69741;49.464;10.986;2023-05-10T05:17:45;1.50;;;0.53;;
80408;SDS011;69741;49.464;10.986;2023-05-10T05:20:11;2.27;;;0.50;;
80408;SDS011;69741;49.464;10.986;2023-05-10T05:22:36;1.15;;;0.30;;
80408;SDS011;69741;49.464;10.986;2023-05-10T05:25:02;5.18;;;0.63;;
80408;SDS011;69741;49.464;10.986;2023-05-10T05:27:28;2.45;;;0.57;;
80408;SDS011;69741;49.464;10.986;2023-05-10T05:29:53;1.40;;;0.50;;
80408;SDS011;69741;49.464;10.986;2023-05-10T05:32:18;1.75;;;0.70;;
80408;SDS011;69741;49.464;10.986;2023-05-10T05:34:44;1.45;;;0.47;;
80408;SDS011;69741;49.464;10.986;2023-05-10T05:37:16;0.88;;;0.22;;
80408;SDS011;69741;49.464;10.986;2023-05-10T05:39:42;1.55;;;0.50;;
80408;SDS011;69741;49.464;10.986;2023-05-10T05:42:08;3.10;;;0.85;;
80408;SDS011;69741;49.464;10.986;2023-05-10T05:44:34;1.00;;;0.32;;
80408;SDS011;69741;49.464;10.986;2023-05-10T05:46:59;2.00;;;0.70;;
80408;SDS011;69741;49.464;10.986;2023-05-10T05:49:24;1.63;;;0.82;;
80408;SDS011;69741;49.464;10.986;2023-05-10T05:51:49;1.90;;;0.43;;
80408;SDS011;69741;49.464;10.986;2023-05-10T05:54:15;1.88;;;0.70;;
80408;SDS011;69741;49.464;10.986;2023-05-10T05:56:40;2.07;;;0.60;;
80408;SDS011;69741;49.464;10.986;2023-05-10T05:59:05;1.73;;;0.63;;
80408;SDS011;69741;49.464;10.986;2023-05-10T06:01:30;2.15;;;0.82;;
80408;SDS011;69741;49.464;10.986;2023-05-10T06:03:56;1.67;;;0.50;;
80408;SDS011;69741;49.464;10.986;2023-05-10T06:06:21;2.50;;;0.73;;
80408;SDS011;69741;49.464;10.986;2023-05-10T06:08:46;1.93;;;0.50;;
80408;SDS011;69741;49.464;10.986;2023-05-10T06:11:11;2.10;;;0.70;;
80408;SDS011;69741;49.464;10.986;2023-05-10T06:13:37;2.05;;;0.60;;
80408;SDS011;69741;49.464;10.986;2023-05-10T06:16:02;3.47;;;1.10;;
80408;SDS011;69741;49.464;10.986;2023-05-10T06:18:27;2.53;;;0.73;;
80408;SDS011;69741;49.464;10.986;2023-05-10T06:20:52;1.80;;;0.60;;
80408;SDS011;69741;49.464;10.986;2023-05-10T06:23:17;2.70;;;0.60;;
80408;SDS011;69741;49.464;10.986;2023-05-10T06:25:43;2.33;;;0.73;;
80408;SDS011;69741;49.464;10.986;2023-05-10T06:28:08;2.43;;;1.07;;
80408;SDS011;69741;49.464;10.986;2023-05-10T06:30:33;2.60;;;1.17;;
80408;SDS011;69741;49.464;10.986;2023-05-10T06:33:00;2.13;;;0.60;;
80408;SDS011;69741;49.464;10.986;2023-05-10T06:35:25;2.43;;;0.73;;
80408;SDS011;69741;49.464;10.986;2023-05-10T06:37:51;2.20;;;0.83;;
80408;SDS011;69741;49.464;10.986;2023-05-10T06:40:16;2.30;;;0.75;;
80408;SDS011;69741;49.464;10.986;2023-05-10T06:42:41;20.52;;;1.20;;
80408;SDS011;69741;49.464;10.986;2023-05-10T06:45:07;4.33;;;1.20;;
80408;SDS011;69741;49.464;10.986;2023-05-10T06:47:33;2.33;;;0.80;;
80408;SDS011;69741;49.464;10.986;2023-05-10T06:49:58;1.93;;;0.63;;
80408;SDS011;69741;49.464;10.986;2023-05-10T06:52:23;2.03;;;0.80;;
80408;SDS011;69741;49.464;10.986;2023-05-10T06:54:48;2.80;;;1.17;;
80408;SDS011;69741;49.464;10.986;2023-05-10T06:57:14;2.42;;;0.77;;
80408;SDS011;69741;49.464;10.986;2023-05-10T06:59:39;2.70;;;1.30;;
80408;SDS011;69741;49.464;10.986;2023-05-10T07:02:05;5.97;;;1.05;;
80408;SDS011;69741;49.464;10.986;2023-05-10T07:04:30;2.10;;;0.68;;
80408;SDS011;69741;49.464;10.986;2023-05-10T07:06:55;2.33;;;0.88;;
80408;SDS011;69741;49.464;10.986;2023-05-10T07:09:21;2.78;;;1.10;;
80408;SDS011;69741;49.464;10.986;2023-05-10T07:11:46;2.25;;;0.85;;
80408;SDS011;69741;49.464;10.986;2023-05-10T07:14:11;2.43;;;0.97;;
80408;SDS011;69741;49.464;10.986;2023-05-10T07:16:36;2.83;;;0.98;;
80408;SDS011;69741;49.464;10.986;2023-05-10T07:19:02;2.70;;;0.70;;
80408;SDS011;69741;49.464;10.986;2023-05-10T07:21:27;2.33;;;0.80;;
80408;SDS011;69741;49.464;10.986;2023-05-10T07:23:53;2.58;;;0.88;;
80408;SDS011;69741;49.464;10.986;2023-05-10T07:26:18;2.28;;;0.85;;
80408;SDS011;69741;49.464;10.986;2023-05-10T07:28:44;2.65;;;1.05;;
80408;SDS011;69741;49.464;10.986;2023-05-10T07:31:09;1.63;;;0.60;;
80408;SDS011;69741;49.464;10.986;2023-05-10T07:33:34;2.65;;;0.75;;
80408;SDS011;69741;49.464;10.986;2023-05-10T07:35:59;2.22;;;0.80;;
80408;SDS011;69741;49.464;10.986;2023-05-10T07:38:25;2.35;;;0.80;;
80408;SDS011;69741;49.464;10.986;2023-05-10T07:40:50;2.42;;;0.85;;
80408;SDS011;69741;49.464;10.986;2023-05-10T07:43:15;2.65;;;0.90;;
80408;SDS011;69741;49.464;10.986;2023-05-10T07:45:40;2.33;;;0.60;;
80408;SDS011;69741;49.464;10.986;2023-05-10T07:48:06;3.63;;;1.17;;
80408;SDS011;69741;49.464;10.986;2023-05-10T07:50:31;3.30;;;1.60;;
80408;SDS011;69741;49.464;10.986;2023-05-10T07:52:57;3.63;;;1.80;;
80408;SDS011;69741;49.464;10.986;2023-05-10T07:55:22;5.60;;;2.50;;
80408;SDS011;69741;49.464;10.986;2023-05-10T07:57:47;5.27;;;1.33;;
80408;SDS011;69741;49.464;10.986;2023-05-10T08:00:12;3.43;;;1.10;;
80408;SDS011;69741;49.464;10.986;2023-05-10T08:02:38;2.72;;;1.05;;
80408;SDS011;69741;49.464;10.986;2023-05-10T08:05:03;4.40;;;1.27;;
80408;SDS011;69741;49.464;10.986;2023-05-10T08:07:30;2.70;;;1.10;;
80408;SDS011;69741;49.464;10.986;2023-05-10T08:09:55;3.38;;;1.73;;
80408;SDS011;69741;49.464;10.986;2023-05-10T08:12:20;2.80;;;1.37;;
80408;SDS011;69741;49.464;10.986;2023-05-10T08:14:45;3.17;;;1.15;;
80408;SDS011;69741;49.464;10.986;2023-05-10T08:17:10;2.78;;;1.00;;
80408;SDS011;69741;49.464;10.986;2023-05-10T08:19:36;2.50;;;0.93;;
80408;SDS011;69741;49.464;10.986;2023-05-10T08:22:01;3.83;;;1.13;;
80408;SDS011;69741;49.464;10.986;2023-05-10T08:24:26;3.15;;;1.10;;
80408;SDS011;69741;49.464;10.986;2023-05-10T08:26:51;3.83;;;1.77;;
80408;SDS011;69741;49.464;10.986;2023-05-10T08:29:16;3.00;;;1.55;;
80408;SDS011;69741;49.464;10.986;2023-05-10T08:31:42;3.13;;;1.63;;
80408;SDS011;69741;49.464;10.986;2023-05-10T08:34:07;6.20;;;1.48;;
80408;SDS011;69741;49.464;10.986;2023-05-10T08:36:32;3.90;;;1.27;;
80408;SDS011;69741;49.464;10.986;2023-05-10T08:38:57;3.27;;;1.30;;
80408;SDS011;69741;49.464;10.986;2023-05-10T08:41:23;3.05;;;1.25;;
80408;SDS011;69741;49.464;10.986;2023-05-10T08:43:54;2.25;;;1.00;;
80408;SDS011;69741;49.464;10.986;2023-05-10T08:58:10;3.95;;;1.33;;
80408;SDS011;69741;49.464;10.986;2023-05-10T09:00:35;4.47;;;1.55;;
80408;SDS011;69741;49.464;10.986;2023-05-10T09:03:02;4.45;;;1.63;;
80408;SDS011;69741;49.464;10.986;2023-05-10T09:05:27;4.70;;;1.50;;
80408;SDS011;69741;49.464;10.986;2023-05-10T09:07:53;4.90;;;1.50;;
80408;SDS011;69741;49.464;10.986;2023-05-10T09:10:18;4.70;;;2.77;;
80408;SDS011;69741;49.464;10.986;2023-05-10T09:12:44;5.07;;;1.48;;
80408;SDS011;69741;49.464;10.986;2023-05-10T09:15:10;3.80;;;1.88;;
80408;SDS011;69741;49.464;10.986;2023-05-10T09:17:36;6.78;;;1.60;;
80408;SDS011;69741;49.464;10.986;2023-05-10T09:20:02;4.18;;;1.52;;
80408;SDS011;69741;49.464;10.986;2023-05-10T09:22:28;5.38;;;1.95;;
80408;SDS011;69741;49.464;10.986;2023-05-10T09:25:04;5.72;;;1.90;;
80408;SDS011;69741;49.464;10.986;2023-05-10T09:27:30;3.47;;;1.30;;
80408;SDS011;69741;49.464;10.986;2023-05-10T09:29:55;3.77;;;1.67;;
80408;SDS011;69741;49.464;10.986;2023-05-10T09:32:20;4.47;;;2.00;;
80408;SDS011;69741;49.464;10.986;2023-05-10T09:34:45;3.53;;;1.60;;
80408;SDS011;69741;49.464;10.986;2023-05-10T09:37:14;3.58;;;1.63;;
80408;SDS011;69741;49.464;10.986;2023-05-10T09:39:39;3.30;;;1.57;;
80408;SDS011;69741;49.464;10.986;2023-05-10T09:42:07;4.57;;;1.35;;
80408;SDS011;69741;49.464;10.986;2023-05-10T09:44:32;6.32;;;1.65;;
80408;SDS011;69741;49.464;10.986;2023-05-10T09:46:58;4.68;;;1.40;;
80408;SDS011;69741;49.464;10.986;2023-05-10T09:49:23;3.75;;;1.52;;
80408;SDS011;69741;49.464;10.986;2023-05-10T09:51:59;4.13;;;1.43;;
80408;SDS011;69741;49.464;10.986;2023-05-10T09:54:24;3.05;;;1.35;;
80408;SDS011;69741;49.464;10.986;2023-05-10T09:56:50;3.77;;;1.10;;
80408;SDS011;69741;49.464;10.986;2023-05-10T09:59:15;5.47;;;1.50;;
80408;SDS011;69741;49.464;10.986;2023-05-10T10:01:40;4.30;;;1.20;;
80408;SDS011;69741;49.464;10.986;2023-05-10T10:04:06;3.97;;;1.35;;
80408;SDS011;69741;49.464;10.986;2023-05-10T10:06:34;3.45;;;0.90;;
80408;SDS011;69741;49.464;10.986;2023-05-10T10:09:00;4.88;;;1.00;;
80408;SDS011;69741;49.464;10.986;2023-05-10T10:11:25;5.07;;;1.63;;
80408;SDS011;69741;49.464;10.986;2023-05-10T10:13:50;4.38;;;1.67;;
80408;SDS011;69741;49.464;10.986;2023-05-10T10:16:16;3.70;;;1.30;;
80408;SDS011;69741;49.464;10.986;2023-05-10T10:18:41;2.30;;;0.80;;
80408;SDS011;69741;49.464;10.986;2023-05-10T10:21:07;3.88;;;0.88;;
80408;SDS011;69741;49.464;10.986;2023-05-10T10:23:33;3.08;;;1.20;;
80408;SDS011;69741;49.464;10.986;2023-05-10T10:25:59;1.88;;;0.63;;
80408;SDS011;69741;49.464;10.986;2023-05-10T10:30:56;2.65;;;0.85;;
80408;SDS011;69741;49.464;10.986;2023-05-10T10:35:52;3.45;;;0.98;;
80408;SDS011;69741;49.464;10.986;2023-05-10T10:38:17;3.15;;;1.10;;
80408;SDS011;69741;49.464;10.986;2023-05-10T10:40:42;2.42;;;1.02;;
80408;SDS011;69741;49.464;10.986;2023-05-10T10:43:24;2.08;;;0.77;;
80408;SDS011;69741;49.464;10.986;2023-05-10T10:48:33;4.25;;;1.63;;
80408;SDS011;69741;49.464;10.986;2023-05-10T10:50:58;4.80;;;1.10;;
80408;SDS011;69741;49.464;10.986;2023-05-10T10:53:26;3.95;;;1.38;;
80408;SDS011;69741;49.464;10.986;2023-05-10T10:55:51;4.38;;;1.13;;
80408;SDS011;69741;49.464;10.986;2023-05-10T10:58:30;3.47;;;1.15;;
80408;SDS011;69741;49.464;10.986;2023-05-10T11:01:11;3.03;;;0.93;;
80408;SDS011;69741;49.464;10.986;2023-05-10T11:03:37;2.08;;;0.80;;
80408;SDS011;69741;49.464;10.986;2023-05-10T11:06:02;2.90;;;1.00;;
80408;SDS011;69741;49.464;10.986;2023-05-10T11:08:28;2.47;;;1.13;;
80408;SDS011;69741;49.464;10.986;2023-05-10T11:11:02;3.10;;;1.10;;
80408;SDS011;69741;49.464;10.986;2023-05-10T11:13:29;3.63;;;1.10;;
80408;SDS011;69741;49.464;10.986;2023-05-10T11:15:55;2.47;;;1.10;;
80408;SDS011;69741;49.464;10.986;2023-05-10T11:18:25;3.55;;;0.90;;
80408;SDS011;69741;49.464;10.986;2023-05-10T11:20:56;2.78;;;0.88;;
80408;SDS011;69741;49.464;10.986;2023-05-10T11:23:22;4.45;;;1.17;;
80408;SDS011;69741;49.464;10.986;2023-05-10T11:25:48;5.47;;;1.10;;
80408;SDS011;69741;49.464;10.986;2023-05-10T11:28:13;2.58;;;1.33;;
80408;SDS011;69741;49.464;10.986;2023-05-10T11:30:39;3.17;;;1.17;;
80408;SDS011;69741;49.464;10.986;2023-05-10T11:33:05;2.30;;;1.00;;
80408;SDS011;69741;49.464;10.986;2023-05-10T11:35:30;4.28;;;1.20;;
80408;SDS011;69741;49.464;10.986;2023-05-10T11:37:55;2.42;;;1.00;;
80408;SDS011;69741;49.464;10.986;2023-05-10T11:40:23;2.93;;;1.30;;
80408;SDS011;69741;49.464;10.986;2023-05-10T11:42:49;7.20;;;1.17;;
80408;SDS011;69741;49.464;10.986;2023-05-10T11:45:14;3.10;;;1.48;;
80408;SDS011;69741;49.464;10.986;2023-05-10T11:47:40;3.13;;;1.23;;
80408;SDS011;69741;49.464;10.986;2023-05-10T11:50:07;3.25;;;1.40;;
80408;SDS011;69741;49.464;10.986;2023-05-10T11:52:36;4.43;;;1.58;;
80408;SDS011;69741;49.464;10.986;2023-05-10T11:55:02;2.80;;;1.30;;
80408;SDS011;69741;49.464;10.986;2023-05-10T11:57:27;3.50;;;1.60;;
80408;SDS011;69741;49.464;10.986;2023-05-10T11:59:53;3.58;;;1.30;;
80408;SDS011;69741;49.464;10.986;2023-05-10T12:02:19;2.80;;;1.10;;
80408;SDS011;69741;49.464;10.986;2023-05-10T12:04:45;3.10;;;1.30;;
80408;SDS011;69741;49.464;10.986;2023-05-10T12:07:10;4.03;;;1.47;;
80408;SDS011;69741;49.464;10.986;2023-05-10T12:09:35;3.20;;;1.37;;
80408;SDS011;69741;49.464;10.986;2023-05-10T12:12:01;2.90;;;1.25;;
80408;SDS011;69741;49.464;10.986;2023-05-10T12:14:27;2.75;;;0.95;;
80408;SDS011;69741;49.464;10.986;2023-05-10T12:16:53;4.13;;;1.35;;
80408;SDS011;69741;49.464;10.986;2023-05-10T12:19:18;2.90;;;1.50;;
80408;SDS011;69741;49.464;10.986;2023-05-10T12:21:44;3.03;;;1.33;;
80408;SDS011;69741;49.464;10.986;2023-05-10T12:24:09;5.40;;;1.37;;
80408;SDS011;69741;49.464;10.986;2023-05-10T12:26:35;3.00;;;1.20;;
80408;SDS011;69741;49.464;10.986;2023-05-10T12:29:13;2.67;;;0.90;;
80408;SDS011;69741;49.464;10.986;2023-05-10T12:31:57;2.80;;;1.15;;
80408;SDS011;69741;49.464;10.986;2023-05-10T12:34:26;2.30;;;0.80;;
80408;SDS011;69741;49.464;10.986;2023-05-10T12:36:52;3.17;;;1.00;;
80408;SDS011;69741;49.464;10.986;2023-05-10T12:39:17;2.60;;;0.93;;
80408;SDS011;69741;49.464;10.986;2023-05-10T12:41:42;2.57;;;0.67;;
80408;SDS011;69741;49.464;10.986;2023-05-10T12:44:08;2.83;;;1.27;;
80408;SDS011;69741;49.464;10.986;2023-05-10T12:46:33;14.75;;;7.07;;
80408;SDS011;69741;49.464;10.986;2023-05-10T12:48:58;4.40;;;1.25;;
80408;SDS011;69741;49.464;10.986;2023-05-10T12:51:23;3.13;;;1.70;;
80408;SDS011;69741;49.464;10.986;2023-05-10T12:53:48;4.03;;;1.40;;
80408;SDS011;69741;49.464;10.986;2023-05-10T12:56:13;6.87;;;1.70;;
80408;SDS011;69741;49.464;10.986;2023-05-10T12:58:38;3.60;;;1.87;;
80408;SDS011;69741;49.464;10.986;2023-05-10T13:01:04;3.60;;;1.45;;
80408;SDS011;69741;49.464;10.986;2023-05-10T13:03:30;3.17;;;1.20;;
80408;SDS011;69741;49.464;10.986;2023-05-10T13:05:55;3.50;;;1.60;;
80408;SDS011;69741;49.464;10.986;2023-05-10T13:08:20;2.77;;;1.10;;
80408;SDS011;69741;49.464;10.986;2023-05-10T13:10:45;4.07;;;1.30;;
80408;SDS011;69741;49.464;10.986;2023-05-10T13:13:11;1.73;;;0.60;;
80408;SDS011;69741;49.464;10.986;2023-05-10T13:15:36;2.60;;;0.80;;
80408;SDS011;69741;49.464;10.986;2023-05-10T13:18:01;5.80;;;1.03;;
80408;SDS011;69741;49.464;10.986;2023-05-10T13:20:26;2.93;;;1.10;;
80408;SDS011;69741;49.464;10.986;2023-05-10T13:22:52;3.42;;;1.58;;
80408;SDS011;69741;49.464;10.986;2023-05-10T13:25:17;3.35;;;1.20;;
80408;SDS011;69741;49.464;10.986;2023-05-10T13:27:42;3.23;;;1.27;;
80408;SDS011;69741;49.464;10.986;2023-05-10T13:30:08;3.97;;;1.20;;
80408;SDS011;69741;49.464;10.986;2023-05-10T13:32:33;3.40;;;1.38;;
80408;SDS011;69741;49.464;10.986;2023-05-10T13:34:59;4.25;;;1.30;;
80408;SDS011;69741;49.464;10.986;2023-05-10T13:37:24;2.80;;;1.10;;
80408;SDS011;69741;49.464;10.986;2023-05-10T13:39:49;4.60;;;1.10;;
80408;SDS011;69741;49.464;10.986;2023-05-10T13:42:15;2.17;;;0.80;;
80408;SDS011;69741;49.464;10.986;2023-05-10T13:44:40;2.27;;;0.83;;
80408;SDS011;69741;49.464;10.986;2023-05-10T13:47:05;2.28;;;0.93;;
80408;SDS011;69741;49.464;10.986;2023-05-10T13:49:30;2.40;;;1.13;;
80408;SDS011;69741;49.464;10.986;2023-05-10T13:51:56;2.22;;;0.85;;
80408;SDS011;69741;49.464;10.986;2023-05-10T13:54:21;2.53;;;0.90;;
80408;SDS011;69741;49.464;10.986;2023-05-10T13:56:47;2.80;;;1.00;;
80408;SDS011;69741;49.464;10.986;2023-05-10T13:59:13;2.42;;;1.20;;
80408;SDS011;69741;49.464;10.986;2023-05-10T14:01:39;2.60;;;1.10;;
80408;SDS011;69741;49.464;10.986;2023-05-10T14:04:04;3.60;;;0.82;;
80408;SDS011;69741;49.464;10.986;2023-05-10T14:06:29;1.93;;;0.70;;
80408;SDS011;69741;49.464;10.986;2023-05-10T14:08:55;2.78;;;0.90;;
80408;SDS011;69741;49.464;10.986;2023-05-10T14:11:21;1.98;;;0.75;;
80408;SDS011;69741;49.464;10.986;2023-05-10T14:13:46;2.60;;;0.67;;
80408;SDS011;69741;49.464;10.986;2023-05-10T14:16:11;3.53;;;1.00;;
80408;SDS011;69741;49.464;10.986;2023-05-10T14:18:37;2.67;;;1.10;;
80408;SDS011;69741;49.464;10.986;2023-05-10T14:21:02;2.40;;;1.05;;
80408;SDS011;69741;49.464;10.986;2023-05-10T14:23:28;2.35;;;0.70;;
80408;SDS011;69741;49.464;10.986;2023-05-10T14:25:53;2.05;;;0.73;;
80408;SDS011;69741;49.464;10.986;2023-05-10T14:28:19;3.15;;;0.98;;
80408;SDS011;69741;49.464;10.986;2023-05-10T14:30:45;3.47;;;1.48;;
80408;SDS011;69741;49.464;10.986;2023-05-10T14:33:11;5.00;;;1.20;;
80408;SDS011;69741;49.464;10.986;2023-05-10T14:35:36;3.35;;;1.10;;
80408;SDS011;69741;49.464;10.986;2023-05-10T14:38:02;3.75;;;1.17;;
80408;SDS011;69741;49.464;10.986;2023-05-10T14:40:28;3.97;;;1.13;;
80408;SDS011;69741;49.464;10.986;2023-05-10T14:42:53;4.20;;;1.10;;
80408;SDS011;69741;49.464;10.986;2023-05-10T14:45:19;3.15;;;1.38;;
80408;SDS011;69741;49.464;10.986;2023-05-10T14:47:44;2.90;;;1.30;;
80408;SDS011;69741;49.464;10.986;2023-05-10T14:50:10;3.08;;;1.17;;
80408;SDS011;69741;49.464;10.986;2023-05-10T14:52:35;4.60;;;1.98;;
80408;SDS011;69741;49.464;10.986;2023-05-10T14:55:01;2.67;;;1.17;;